Flight Track Log - Related Links

Times and Time Zones

All times are in EDT time to prevent confusion due to time zone crossing. See the AWE1231 flight status page for this flight to view local times or setup timezone preferences in your user account.

Time Position Orientation Groundspeed Altitude Reporting Facility
EDT Latitude Longitude Course Direction KTS MPH feet Rate Location/Type
Fri 11:36:01 AM 35.1650 -80.9310 176° South 195 224 2,400  Level FlightAware ADS-B
Fri 11:36:29 AM 35.1370 -80.9270 173° South 232 267 3,000 1,667 Climbing FlightAware ADS-B
Fri 11:36:55 AM 35.1100 -80.9210 170° South 249 287 3,900 2,421 Climbing FlightAware ADS-B
Fri 11:37:26 AM 35.0740 -80.9140 171° South 255 293 5,300 2,667 Climbing FlightAware ADS-B
Fri 11:37:49 AM 35.0460 -80.9090 172° South 261 300 6,300 2,769 Climbing FlightAware ADS-B
Fri 11:38:05 AM 35.0260 -80.9060 173° South 263 303 7,100 2,727 Climbing FlightAware ADS-B
Fri 11:38:33 AM 34.9920 -80.9020 174° South 264 304 8,300 2,357 Climbing FlightAware ADS-B
Fri 11:39:01 AM 34.9570 -80.9000 177° South 276 318 9,300 1,857 Climbing FlightAware ADS-B
Fri 11:39:15 AM 34.9390 -80.9000 180° South 290 334 9,600 1,731 Climbing FlightAware ADS-B
Fri 11:39:53 AM 34.8860 -80.8990 179° South 307 353 10,800 2,143 Climbing FlightAware ADS-B
Fri 11:40:39 AM 34.8200 -80.8980 179° South 313 360 12,600 2,267 Climbing FlightAware ADS-B
Fri 11:41:23 AM 34.7560 -80.8970 179° South 322 371 14,200 2,000 Climbing FlightAware ADS-B
Fri 11:41:51 AM 34.7110 -80.8960 179° South 333 383 15,000 1,786 Climbing FlightAware ADS-B
Fri 11:42:47 AM 34.6230 -80.8900 177° South 346 398 16,700 1,281 Climbing FlightAware ADS-B
Fri 11:43:20 AM 34.5760 -80.8850 175° South 347 399 16,900 1,829 Climbing FlightAware ADS-B
Fri 11:44:09 AM 34.4910 -80.8900 183° South 357 411 19,200 2,427 Climbing FlightAware ADS-B
Fri 11:44:49 AM 34.4250 -80.9070 192° South 355 409 20,500 978 Climbing FlightAware ADS-B
Fri 11:45:41 AM 34.3530 -80.9260 192° South 356 410 20,700 891 Climbing FlightAware ADS-B
Fri 11:46:30 AM 34.2670 -80.9480 192° South 373 429 22,000 1,533 Climbing FlightAware ADS-B
Fri 11:47:11 AM 34.1850 -80.9700 193° South 399 459 23,000 741 Climbing FlightAware ADS-B
Fri 11:47:51 AM 34.1180 -80.9870 192° South 421 484 23,000  Level FlightAware ADS-B
Fri 11:48:36 AM 34.0290 -81.0010 187° South 434 499 23,000 200 Level FlightAware ADS-B
Fri 11:49:21 AM 33.9310 -81.0320 195° South 449 517 23,300 960 Climbing FlightAware ADS-B
Fri 11:50:16 AM 33.8180 -81.0570 190° South 445 512 24,600 1,267 Climbing FlightAware ADS-B
Fri 11:50:51 AM 33.7480 -81.0630 184° South 446 513 25,200 1,275 Climbing FlightAware ADS-B
Fri 11:51:36 AM 33.6560 -81.0710 184° South 438 504 26,300 1,400 Climbing FlightAware ADS-B
Fri 11:52:21 AM 33.5640 -81.0790 184° South 437 503 27,300 1,172 Climbing FlightAware ADS-B
Fri 11:53:03 AM 33.4840 -81.0860 184° South 437 503 28,000 988 Climbing FlightAware ADS-B
Fri 11:53:46 AM 33.3920 -81.0940 184° South 439 505 28,700 769 Climbing FlightAware ADS-B
Fri 11:54:21 AM 33.3210 -81.1000 184° South 445 512 29,000 675 Climbing FlightAware ADS-B
Fri 11:55:06 AM 33.2290 -81.1080 184° South 447 514 29,600 776 Climbing FlightAware ADS-B
Fri 11:55:46 AM 33.1470 -81.1150 184° South 448 516 30,100 635 Climbing FlightAware ADS-B
Fri 11:56:31 AM 33.0520 -81.1230 184° South 456 525 30,500 600 Climbing FlightAware ADS-B
Fri 11:57:16 AM 32.9560 -81.1310 184° South 459 528 31,000 825 Climbing FlightAware ADS-B
Fri 11:57:51 AM 32.8830 -81.1370 184° South 457 526 31,600 975 Climbing FlightAware ADS-B
Fri 11:58:36 AM 32.7880 -81.1450 184° South 455 524 32,300 800 Climbing FlightAware ADS-B
Fri 11:59:21 AM 32.6970 -81.1530 184° South 458 527 32,800 825 Climbing FlightAware ADS-B
Fri 11:59:56 AM 32.6210 -81.1590 184° South 455 524 33,400 558 Climbing FlightAware ADS-B
Fri 12:00:47 PM 32.5250 -81.1680 185° South 456 525 33,600 333 Climbing FlightAware ADS-B
Fri 12:01:26 PM 32.4310 -81.1750 184° South 470 541 33,900 240 Climbing FlightAware ADS-B
Fri 12:02:02 PM 32.3650 -81.1810 184° South 470 541 33,900 71 Level FlightAware ADS-B
Fri 12:02:50 PM 32.2560 -81.1900 184° South 465 535 34,000 57 Climbing FlightAware ADS-B
Fri 12:03:47 PM 32.1260 -81.1980 183° South 471 542 34,000  Level FlightAware ADS-B
Fri 12:04:23 PM 32.0560 -81.1960 179° South 472 543 34,000  Level FlightAware ADS-B
Fri 12:05:12 PM 31.9580 -81.1930 179° South 473 544 34,000  Level FlightAware ADS-B
Fri 12:05:52 PM 31.8650 -81.1870 177° South 472 543 34,000  Level FlightAware ADS-B
Fri 12:06:35 PM 31.7690 -81.1620 168° South 471 542 34,000  Level FlightAware ADS-B
Fri 12:07:16 PM 31.6740 -81.1340 166° South 472 543 34,000  Level FlightAware ADS-B
Fri 12:07:52 PM 31.6130 -81.1170 167° South 473 544 34,000  Level FlightAware ADS-B
Fri 12:08:49 PM 31.4930 -81.0820 166° South 475 547 34,000  Level FlightAware ADS-B
Fri 12:09:29 PM 31.4060 -81.0570 166° South 475 547 34,000 409 Level FlightAware ADS-B
Fri 12:10:17 PM 31.2950 -81.0250 166° South 477 549 34,600 500 Climbing FlightAware ADS-B
Fri 12:11:17 PM 31.1880 -80.9940 166° South 475 547 34,900 188 Climbing FlightAware ADS-B
Fri 12:11:53 PM 31.1230 -80.9750 166° South 475 547 34,900  Level FlightAware ADS-B
Fri 12:12:41 PM 31.0360 -80.9500 166° South 475 547 34,900  Level FlightAware ADS-B
Fri 12:13:16 PM 30.9730 -80.9310 166° South 475 547 34,900  Level FlightAware ADS-B
Fri 12:14:05 PM 30.8840 -80.9060 166° South 475 547 34,900  Level FlightAware ADS-B
Fri 12:14:41 PM 30.8190 -80.8870 166° South 475 547 34,900  Level FlightAware ADS-B
Fri 12:16:30 PM 30.6210 -80.8290 166° South 475 547 34,900  Level FlightAware ADS-B
Fri 12:17:10 PM 30.5480 -80.8080 166° South 475 547 34,900 653 Level FlightAware ADS-B
Fri 12:18:11 PM 30.2790 -80.7350 167° South 483 556 36,000 702 Climbing FlightAware ADS-B
Fri 12:18:44 PM 30.2080 -80.7160 167° South 481 554 36,000  Level FlightAware ADS-B
Fri 12:19:31 PM 30.1180 -80.6900 166° South 480 552 36,000  Level FlightAware ADS-B
Fri 12:20:11 PM 30.0270 -80.6650 167° South 479 551 36,000  Level FlightAware ADS-B
Fri 12:21:04 PM 29.9130 -80.6320 166° South 477 549 36,000  Level FlightAware ADS-B
Fri 12:21:53 PM 29.8230 -80.6070 166° South 477 549 36,000  Level FlightAware ADS-B
Fri 12:22:29 PM 29.7580 -80.5880 166° South 477 549 36,000  Level FlightAware ADS-B
Fri 12:23:17 PM 29.6710 -80.5630 166° South 477 549 36,000  Level FlightAware ADS-B
Fri 12:23:56 PM 29.6000 -80.5420 166° South 477 549 36,000  Level FlightAware ADS-B
Fri 12:24:57 PM 29.4880 -80.5110 166° South 477 549 36,000  Level FlightAware ADS-B
Fri 12:25:33 PM 29.4230 -80.4920 166° South 477 549 36,000  Level FlightAware ADS-B
Fri 12:26:21 PM 29.3360 -80.4670 166° South 477 549 36,000  Level FlightAware ADS-B
Fri 12:27:53 PM 29.0280 -80.3880 167° South 461 531 36,000  Level FlightAware ADS-B
Fri 12:28:38 PM 28.9330 -80.3620 167° South 464 534 36,000  Level FlightAware ADS-B
Fri 12:29:15 PM 28.8590 -80.3410 166° South 464 534 36,000  Level FlightAware ADS-B
Fri 12:29:53 PM 28.7720 -80.3180 167° South 465 535 36,000  Level FlightAware ADS-B
Fri 12:30:37 PM 28.6920 -80.2960 166° South 465 535 36,000 -467 Level FlightAware ADS-B
Fri 12:31:23 PM 28.5860 -80.2670 166° South 466 536 35,300 -698 Descending FlightAware ADS-B
Fri 12:32:03 PM 28.4970 -80.2430 167° South 465 535 35,000 -512 Descending FlightAware ADS-B
Fri 12:32:45 PM 28.4130 -80.2200 166° South 443 510 34,600 -565 Descending FlightAware ADS-B
Fri 12:33:28 PM 28.3230 -80.1950 166° South 443 510 34,200 -434 Descending FlightAware ADS-B
Fri 12:34:08 PM 28.2410 -80.1730 167° South 448 516 34,000 -150 Descending FlightAware ADS-B
Fri 12:34:48 PM 28.1610 -80.1520 167° South 445 512 34,000  Level FlightAware ADS-B
Fri 12:35:28 PM 28.0850 -80.1310 166° South 442 509 34,000  Level FlightAware ADS-B
Fri 12:36:08 PM 28.0010 -80.1090 167° South 433 498 34,000  Level FlightAware ADS-B
Fri 12:36:48 PM 27.9220 -80.0870 166° South 431 496 34,000  Level FlightAware ADS-B
Fri 12:37:28 PM 27.8420 -80.0660 167° South 429 494 34,000  Level FlightAware ADS-B
Fri 12:38:08 PM 27.7640 -80.0450 167° South 428 493 34,000  Level FlightAware ADS-B
Fri 12:38:48 PM 27.6840 -80.0240 167° South 427 491 34,000  Level FlightAware ADS-B
Fri 12:39:28 PM 27.6130 -80.0050 167° South 426 490 34,000  Level FlightAware ADS-B
Fri 12:40:17 PM 27.5270 -79.9810 166° South 427 491 34,000  Level FlightAware ADS-B
Fri 12:40:53 PM 27.4400 -79.9590 167° South 430 495 34,000  Level FlightAware ADS-B
Fri 12:41:33 PM 27.3740 -79.9400 166° South 430 495 34,000  Level FlightAware ADS-B
Fri 12:42:55 PM 27.1970 -79.8940 167° South 438 504 34,000  Level FlightAware ADS-B
Fri 12:43:36 PM 27.1130 -79.8720 167° South 440 506 34,000  Level FlightAware ADS-B
Fri 12:44:18 PM 27.0290 -79.8500 167° South 443 510 34,000  Level FlightAware ADS-B
Fri 12:44:54 PM 26.9550 -79.8300 166° South 448 516 34,000  Level FlightAware ADS-B
Fri 12:45:34 PM 26.8760 -79.8090 167° South 450 518 34,000  Level FlightAware ADS-B
Fri 12:46:18 PM 26.7870 -79.7860 167° South 454 522 34,000  Level FlightAware ADS-B
Fri 12:46:55 PM 26.7160 -79.7670 167° South 450 518 34,000 62 Level FlightAware ADS-B
Fri 12:47:55 PM 26.5870 -79.7330 167° South 462 532 34,100 173 Climbing FlightAware ADS-B
Fri 12:48:39 PM 26.5000 -79.7110 167° South 450 518 34,300 558 Climbing FlightAware ADS-B
Fri 12:49:21 PM 26.4040 -79.6850 166° South 460 529 34,900 553 Climbing FlightAware ADS-B
Fri 12:49:55 PM 26.3340 -79.6670 167° South 462 532 35,000 79 Climbing FlightAware ADS-B
Fri 12:50:37 PM 26.2470 -79.6440 167° South 465 535 35,000  Level FlightAware ADS-B
Fri 12:51:21 PM 26.1540 -79.6200 167° South 465 535 35,000  Level FlightAware ADS-B
Fri 12:52:03 PM 26.0660 -79.5970 167° South 464 534 35,000  Level FlightAware ADS-B
Fri 12:52:41 PM 25.9860 -79.5770 167° South 463 533 35,000  Level FlightAware ADS-B
Fri 12:53:25 PM 25.8940 -79.5530 167° South 463 533 35,000  Level FlightAware ADS-B
Fri 12:54:09 PM 25.8030 -79.5290 167° South 464 534 35,000  Level FlightAware ADS-B
Fri 12:54:52 PM 25.7140 -79.5060 167° South 467 537 35,000  Level FlightAware ADS-B
Fri 12:55:31 PM 25.6290 -79.4840 167° South 470 541 35,000  Level FlightAware ADS-B
Fri 12:56:11 PM 25.5430 -79.4620 167° South 473 544 35,000 70 Level FlightAware ADS-B
Fri 12:56:57 PM 25.4440 -79.4370 167° South 475 547 35,100 70 Climbing FlightAware ADS-B
Fri 12:57:37 PM 25.3620 -79.4150 166° South 476 548 35,100 -77 Level FlightAware ADS-B
Fri 12:58:15 PM 25.2770 -79.3930 167° South 476 548 35,000 -75 Descending FlightAware ADS-B
Fri 12:58:57 PM 25.1940 -79.3720 167° South 476 548 35,000  Level FlightAware ADS-B
Fri 12:59:37 PM 25.1040 -79.3490 167° South 476 548 35,000  Level FlightAware ADS-B
Fri 12:59:52 PM 25.0760 -79.3420 167° South 476 548 35,000  Level FlightAware ADS-B
Fri 01:01:36 PM 24.8720 -79.2900 167° South 476 548 35,000  Level FlightAware ADS-B
Fri 01:02:25 PM 24.7500 -79.2590 167° South 477 549 35,000  Level FlightAware ADS-B
Fri 01:03:00 PM 24.6730 -79.2390 167° South 477 549 35,000  Level FlightAware ADS-B
Fri 01:03:59 PM 24.5470 -79.2070 167° South 478 550 35,000  Level FlightAware ADS-B
Fri 01:04:36 PM 24.4790 -79.1900 167° South 478 550 35,000  Level FlightAware ADS-B
Fri 01:05:24 PM 24.3920 -79.1680 167° South 478 550 35,000  Level FlightAware ADS-B
Fri 01:06:12 PM 24.3040 -79.1460 167° South 478 550 35,000  Level FlightAware ADS-B
Fri 01:06:48 PM 24.2380 -79.1290 167° South 478 550 35,000  Level FlightAware ADS-B
Fri 01:07:36 PM 24.1500 -79.1070 167° South 478 550 35,000  Level FlightAware ADS-B
Fri 01:08:23 PM 24.0640 -79.0850 167° South 478 550 35,000  Level FlightAware ADS-B
Fri 01:08:59 PM 23.9980 -79.0680 167° South 478 550 35,000  Level FlightAware ADS-B
Fri 01:09:48 PM 23.9080 -79.0460 167° South 478 550 35,000  Level FlightAware ADS-B
Fri 01:10:24 PM 23.8420 -79.0290 167° South 478 550 35,000  Level FlightAware ADS-B
Fri 01:11:22 PM 23.7360 -79.0020 167° South 478 550 35,000  Level FlightAware ADS-B
Fri 01:12:01 PM 23.6640 -78.9840 167° South 478 550 35,000  Level FlightAware ADS-B
Fri 01:12:50 PM 23.5750 -78.9610 167° South 478 550 35,000  Level FlightAware ADS-B
Fri 01:13:26 PM 23.5090 -78.9450 167° South 478 550 35,000  Level FlightAware ADS-B
Fri 01:16:00 PM 23.1998 -78.9599 173° South  Level FlightAware Approximate
Fri 01:17:00 PM 23.0817 -78.9441 173° South  Level FlightAware Approximate
Fri 01:18:00 PM 22.9636 -78.9282 173° South  Level FlightAware Approximate
Fri 01:19:00 PM 22.8455 -78.9124 173° South  Level FlightAware Approximate
Fri 01:20:00 PM 22.7274 -78.8966 173° South  Level FlightAware Approximate
Fri 01:21:00 PM 22.6093 -78.8809 173° South  Level FlightAware Approximate
Fri 01:22:00 PM 22.4912 -78.8651 173° South  Level FlightAware Approximate
Fri 01:23:00 PM 22.3731 -78.8494 173° South  Level FlightAware Approximate
Fri 01:24:00 PM 22.2550 -78.8338 173° South  Level FlightAware Approximate
Fri 01:25:00 PM 22.1369 -78.8181 173° South  Level FlightAware Approximate
Fri 01:26:00 PM 22.0188 -78.8025 173° South  Level FlightAware Approximate
Fri 01:27:00 PM 21.9003 -78.8091 185° South  Level FlightAware Approximate
Fri 01:28:00 PM 21.7817 -78.8199 185° South  Level FlightAware Approximate
Fri 01:29:00 PM 21.6632 -78.8306 185° South  Level FlightAware Approximate
Fri 01:30:00 PM 21.5444 -78.8374 182° South  Level FlightAware Approximate
Fri 01:31:00 PM 21.4255 -78.8428 182° South  Level FlightAware Approximate
Fri 01:32:00 PM 21.3066 -78.8482 182° South  Level FlightAware Approximate
Fri 01:33:00 PM 21.1878 -78.8549 183° South  Level FlightAware Approximate
Fri 01:34:00 PM 21.0690 -78.8624 183° South  Level FlightAware Approximate
Fri 01:35:00 PM 20.9502 -78.8698 183° South  Level FlightAware Approximate
Fri 01:36:00 PM 20.8314 -78.8772 183° South  Level FlightAware Approximate
Fri 01:37:00 PM 20.7126 -78.8846 183° South  Level FlightAware Approximate
Fri 01:38:00 PM 20.5938 -78.8921 183° South  Level FlightAware Approximate
Fri 01:39:00 PM 20.4750 -78.8995 183° South  Level FlightAware Approximate
Fri 01:40:00 PM 20.3563 -78.9085 184° South  Level FlightAware Approximate
Fri 01:41:00 PM 20.2376 -78.9167 180° South  Level FlightAware Approximate
Fri 01:42:00 PM 20.1189 -78.9225 185° South  Level FlightAware Approximate
Fri 01:43:00 PM 20.0003 -78.9333 185° South  Level FlightAware Approximate
Fri 01:44:00 PM 19.8977 -78.8694 150° Southeast  Level FlightAware Approximate
Fri 01:45:00 PM 19.7983 -78.7998 145° Southeast  Level FlightAware Approximate
Fri 01:46:00 PM 19.7004 -78.7280 145° Southeast  Level FlightAware Approximate
Fri 01:47:00 PM 19.6021 -78.6569 148° Southeast  Level FlightAware Approximate
Fri 01:48:00 PM 19.5013 -78.5897 148° Southeast  Level FlightAware Approximate
Fri 01:49:00 PM 19.4006 -78.5226 148° Southeast  Level FlightAware Approximate
Fri 01:50:00 PM 19.2999 -78.4554 148° Southeast  Level FlightAware Approximate
Fri 01:51:00 PM 19.1991 -78.3883 148° Southeast  Level FlightAware Approximate
Fri 01:52:00 PM 19.1009 -78.3173 145° Southeast  Level FlightAware Approximate
Fri 01:53:00 PM 19.0023 -78.2469 149° Southeast  Level FlightAware Approximate
Fri 01:54:00 PM 18.9004 -78.1820 149° Southeast  Level FlightAware Approximate
Fri 01:55:00 PM 18.7991 -78.1160 148° Southeast  Level FlightAware Approximate
Fri 01:56:00 PM 18.6985 -78.0489 145° Southeast  Level FlightAware Approximate
Fri 01:57:00 PM 18.6015 -77.9761 145° Southeast  Level FlightAware Approximate
Fri 01:58:00 PM 18.5045 -77.9034 145° Southeast  Level FlightAware Approximate

Login

Don't have an account? Register now (free) for customized features, flight alerts, and more!